sensor_id;sensor_type;location;lat;lon;timestamp;pressure;altitude;pressure_sealevel;temperature;humidity
75759;BME280;64371;47.566;19.086;2023-04-29T00:02:50;100366.31;;;10.70;84.80
75759;BME280;64371;47.566;19.086;2023-04-29T00:05:53;100354.75;;;10.66;84.59
75759;BME280;64371;47.566;19.086;2023-04-29T00:08:56;100349.72;;;10.70;85.13
75759;BME280;64371;47.566;19.086;2023-04-29T00:11:58;100347.81;;;10.75;85.08
75759;BME280;64371;47.566;19.086;2023-04-29T00:15:00;100350.91;;;10.82;83.98
75759;BME280;64371;47.566;19.086;2023-04-29T00:18:04;100346.03;;;10.94;84.11
75759;BME280;64371;47.566;19.086;2023-04-29T00:21:06;100339.63;;;11.00;84.18
75759;BME280;64371;47.566;19.086;2023-04-29T00:24:09;100334.97;;;10.92;82.84
75759;BME280;64371;47.566;19.086;2023-04-29T00:27:11;100336.59;;;10.88;83.40
75759;BME280;64371;47.566;19.086;2023-04-29T00:30:15;100335.13;;;10.77;83.75
75759;BME280;64371;47.566;19.086;2023-04-29T00:33:17;100333.22;;;10.83;84.04
75759;BME280;64371;47.566;19.086;2023-04-29T00:36:20;100333.75;;;10.85;84.69
75759;BME280;64371;47.566;19.086;2023-04-29T00:39:22;100340.38;;;10.82;84.53
75759;BME280;64371;47.566;19.086;2023-04-29T00:42:25;100342.84;;;10.68;85.27
75759;BME280;64371;47.566;19.086;2023-04-29T00:45:28;100340.84;;;10.60;86.09
75759;BME280;64371;47.566;19.086;2023-04-29T00:48:30;100338.47;;;10.59;85.64
75759;BME280;64371;47.566;19.086;2023-04-29T00:51:35;100351.66;;;10.83;86.35
75759;BME280;64371;47.566;19.086;2023-04-29T00:54:38;100353.25;;;10.84;85.90
75759;BME280;64371;47.566;19.086;2023-04-29T00:57:41;100351.34;;;10.89;85.43
75759;BME280;64371;47.566;19.086;2023-04-29T01:00:44;100351.50;;;10.74;84.77
75759;BME280;64371;47.566;19.086;2023-04-29T01:03:48;100348.13;;;10.68;84.83
75759;BME280;64371;47.566;19.086;2023-04-29T01:07:13;100338.94;;;10.66;83.87
75759;BME280;64371;47.566;19.086;2023-04-29T01:10:41;100355.00;;;10.70;84.15
75759;BME280;64371;47.566;19.086;2023-04-29T01:13:49;100354.69;;;10.71;83.49
75759;BME280;64371;47.566;19.086;2023-04-29T01:16:56;100350.22;;;10.72;83.59
75759;BME280;64371;47.566;19.086;2023-04-29T01:20:00;100348.63;;;10.71;83.83
75759;BME280;64371;47.566;19.086;2023-04-29T01:23:04;100351.22;;;10.76;84.14
75759;BME280;64371;47.566;19.086;2023-04-29T01:26:07;100332.75;;;10.76;83.66
75759;BME280;64371;47.566;19.086;2023-04-29T01:29:52;100337.03;;;10.72;84.78
75759;BME280;64371;47.566;19.086;2023-04-29T01:36:32;100332.56;;;10.72;83.36
75759;BME280;64371;47.566;19.086;2023-04-29T01:43:13;100342.81;;;10.74;85.45
75759;BME280;64371;47.566;19.086;2023-04-29T01:46:20;100327.84;;;10.69;85.64
75759;BME280;64371;47.566;19.086;2023-04-29T01:49:26;100335.34;;;10.81;85.48
75759;BME280;64371;47.566;19.086;2023-04-29T01:52:29;100338.78;;;10.81;85.67
75759;BME280;64371;47.566;19.086;2023-04-29T01:55:33;100333.84;;;10.75;84.66
75759;BME280;64371;47.566;19.086;2023-04-29T01:59:01;100328.47;;;10.85;84.81
75759;BME280;64371;47.566;19.086;2023-04-29T02:02:12;100325.69;;;10.71;84.81
75759;BME280;64371;47.566;19.086;2023-04-29T02:05:26;100339.34;;;10.78;84.88
75759;BME280;64371;47.566;19.086;2023-04-29T02:08:33;100340.88;;;10.84;85.49
75759;BME280;64371;47.566;19.086;2023-04-29T02:11:35;100328.78;;;10.78;84.54
75759;BME280;64371;47.566;19.086;2023-04-29T02:14:38;100333.44;;;10.86;85.06
75759;BME280;64371;47.566;19.086;2023-04-29T02:17:40;100324.25;;;10.84;83.65
75759;BME280;64371;47.566;19.086;2023-04-29T02:20:43;100329.75;;;10.87;83.06
75759;BME280;64371;47.566;19.086;2023-04-29T02:23:45;100327.13;;;10.87;81.62
75759;BME280;64371;47.566;19.086;2023-04-29T02:26:48;100325.03;;;10.84;83.30
75759;BME280;64371;47.566;19.086;2023-04-29T02:29:50;100329.88;;;10.77;80.79
75759;BME280;64371;47.566;19.086;2023-04-29T02:32:53;100318.97;;;10.84;76.09
75759;BME280;64371;47.566;19.086;2023-04-29T02:35:55;100325.88;;;11.03;73.10
75759;BME280;64371;47.566;19.086;2023-04-29T02:38:57;100314.34;;;11.18;70.43
75759;BME280;64371;47.566;19.086;2023-04-29T02:42:01;100315.69;;;11.15;66.20
75759;BME280;64371;47.566;19.086;2023-04-29T02:45:04;100321.53;;;11.12;67.10
75759;BME280;64371;47.566;19.086;2023-04-29T02:48:07;100319.75;;;11.08;66.94
75759;BME280;64371;47.566;19.086;2023-04-29T02:51:10;100318.84;;;11.17;65.90
75759;BME280;64371;47.566;19.086;2023-04-29T02:54:12;100317.50;;;11.20;65.90
75759;BME280;64371;47.566;19.086;2023-04-29T02:57:15;100306.63;;;11.21;65.71
75759;BME280;64371;47.566;19.086;2023-04-29T03:00:17;100305.81;;;11.26;64.26
75759;BME280;64371;47.566;19.086;2023-04-29T03:03:20;100310.13;;;11.17;63.19
75759;BME280;64371;47.566;19.086;2023-04-29T03:06:22;100308.56;;;11.16;63.71
75759;BME280;64371;47.566;19.086;2023-04-29T03:09:25;100314.78;;;11.25;62.85
75759;BME280;64371;47.566;19.086;2023-04-29T03:12:27;100314.66;;;11.16;62.65
75759;BME280;64371;47.566;19.086;2023-04-29T03:15:30;100319.63;;;11.18;65.11
75759;BME280;64371;47.566;19.086;2023-04-29T03:18:32;100314.75;;;11.06;63.26
75759;BME280;64371;47.566;19.086;2023-04-29T03:21:34;100308.69;;;11.06;66.32
75759;BME280;64371;47.566;19.086;2023-04-29T03:24:37;100316.75;;;11.14;66.44
75759;BME280;64371;47.566;19.086;2023-04-29T03:27:40;100316.75;;;11.14;65.39
75759;BME280;64371;47.566;19.086;2023-04-29T03:30:44;100318.84;;;11.17;65.57
75759;BME280;64371;47.566;19.086;2023-04-29T03:33:46;100323.19;;;11.27;62.81
75759;BME280;64371;47.566;19.086;2023-04-29T03:36:49;100322.16;;;11.28;65.50
75759;BME280;64371;47.566;19.086;2023-04-29T03:39:56;100321.28;;;11.32;60.90
75759;BME280;64371;47.566;19.086;2023-04-29T03:42:59;100311.78;;;11.31;63.12
75759;BME280;64371;47.566;19.086;2023-04-29T03:46:02;100319.16;;;11.34;62.28
75759;BME280;64371;47.566;19.086;2023-04-29T03:49:04;100315.38;;;11.41;62.95
75759;BME280;64371;47.566;19.086;2023-04-29T03:52:07;100326.66;;;11.46;62.65
75759;BME280;64371;47.566;19.086;2023-04-29T03:55:09;100328.72;;;11.30;62.38
75759;BME280;64371;47.566;19.086;2023-04-29T03:58:13;100334.13;;;11.20;62.94
75759;BME280;64371;47.566;19.086;2023-04-29T04:01:17;100336.63;;;11.49;59.03
75759;BME280;64371;47.566;19.086;2023-04-29T04:04:20;100343.34;;;11.60;57.71
75759;BME280;64371;47.566;19.086;2023-04-29T04:07:25;100346.28;;;11.40;59.84
75759;BME280;64371;47.566;19.086;2023-04-29T04:11:02;100353.03;;;11.46;58.00
75759;BME280;64371;47.566;19.086;2023-04-29T04:14:16;100352.41;;;11.36;58.54
75759;BME280;64371;47.566;19.086;2023-04-29T04:17:20;100349.03;;;11.49;57.67
75759;BME280;64371;47.566;19.086;2023-04-29T04:20:22;100346.47;;;11.44;57.33
75759;BME280;64371;47.566;19.086;2023-04-29T04:23:25;100353.69;;;11.38;60.47
75759;BME280;64371;47.566;19.086;2023-04-29T04:26:28;100354.28;;;11.11;61.78
75759;BME280;64371;47.566;19.086;2023-04-29T04:29:46;100345.00;;;10.66;65.00
75759;BME280;64371;47.566;19.086;2023-04-29T04:32:51;100354.50;;;10.68;63.82
75759;BME280;64371;47.566;19.086;2023-04-29T04:35:53;100344.13;;;10.47;65.88
75759;BME280;64371;47.566;19.086;2023-04-29T04:38:56;100346.66;;;10.57;65.59
75759;BME280;64371;47.566;19.086;2023-04-29T04:41:58;100344.16;;;10.42;67.03
75759;BME280;64371;47.566;19.086;2023-04-29T04:45:04;100338.53;;;10.54;67.53
75759;BME280;64371;47.566;19.086;2023-04-29T04:48:18;100340.16;;;10.50;65.45
75759;BME280;64371;47.566;19.086;2023-04-29T04:51:24;100345.69;;;10.77;65.49
75759;BME280;64371;47.566;19.086;2023-04-29T04:54:26;100346.59;;;10.91;64.95
75759;BME280;64371;47.566;19.086;2023-04-29T04:57:38;100347.78;;;11.04;63.95
75759;BME280;64371;47.566;19.086;2023-04-29T05:00:46;100352.91;;;10.90;66.40
75759;BME280;64371;47.566;19.086;2023-04-29T05:03:49;100334.69;;;10.94;66.25
75759;BME280;64371;47.566;19.086;2023-04-29T05:06:51;100337.44;;;11.07;65.95
75759;BME280;64371;47.566;19.086;2023-04-29T05:09:56;100332.47;;;11.24;64.72
75759;BME280;64371;47.566;19.086;2023-04-29T05:12:59;100336.16;;;11.47;63.71
75759;BME280;64371;47.566;19.086;2023-04-29T05:16:02;100341.56;;;11.56;61.78
75759;BME280;64371;47.566;19.086;2023-04-29T05:19:08;100348.00;;;11.50;63.74
75759;BME280;64371;47.566;19.086;2023-04-29T05:22:13;100347.31;;;11.39;63.04
75759;BME280;64371;47.566;19.086;2023-04-29T05:25:15;100333.28;;;11.44;62.77
75759;BME280;64371;47.566;19.086;2023-04-29T05:28:18;100341.13;;;11.49;60.17
75759;BME280;64371;47.566;19.086;2023-04-29T05:31:21;100341.19;;;11.44;62.57
75759;BME280;64371;47.566;19.086;2023-04-29T05:34:23;100339.41;;;11.39;60.84
75759;BME280;64371;47.566;19.086;2023-04-29T05:37:26;100348.69;;;11.37;60.56
75759;BME280;64371;47.566;19.086;2023-04-29T05:40:52;100343.91;;;11.39;62.41
75759;BME280;64371;47.566;19.086;2023-04-29T05:44:14;100355.25;;;11.39;59.62
75759;BME280;64371;47.566;19.086;2023-04-29T05:47:16;100338.56;;;11.44;60.17
75759;BME280;64371;47.566;19.086;2023-04-29T05:50:19;100347.63;;;11.56;60.24
75759;BME280;64371;47.566;19.086;2023-04-29T05:53:22;100354.63;;;11.47;60.24
75759;BME280;64371;47.566;19.086;2023-04-29T05:56:24;100355.94;;;11.68;60.28
75759;BME280;64371;47.566;19.086;2023-04-29T05:59:29;100357.00;;;11.67;58.45
75759;BME280;64371;47.566;19.086;2023-04-29T06:02:34;100342.91;;;11.53;58.26
75759;BME280;64371;47.566;19.086;2023-04-29T06:05:46;100350.50;;;11.60;58.09
75759;BME280;64371;47.566;19.086;2023-04-29T06:09:13;100361.81;;;11.60;58.74
75759;BME280;64371;47.566;19.086;2023-04-29T06:12:30;100364.91;;;11.67;57.56
75759;BME280;64371;47.566;19.086;2023-04-29T06:15:33;100367.25;;;11.50;58.91
75759;BME280;64371;47.566;19.086;2023-04-29T06:18:35;100373.25;;;11.56;58.46
75759;BME280;64371;47.566;19.086;2023-04-29T06:21:39;100367.03;;;11.47;59.34
75759;BME280;64371;47.566;19.086;2023-04-29T06:24:41;100362.19;;;11.54;57.83
75759;BME280;64371;47.566;19.086;2023-04-29T06:27:46;100368.19;;;11.59;59.09
75759;BME280;64371;47.566;19.086;2023-04-29T06:30:51;100363.63;;;11.65;58.42
75759;BME280;64371;47.566;19.086;2023-04-29T06:33:54;100374.28;;;11.78;57.42
75759;BME280;64371;47.566;19.086;2023-04-29T06:36:56;100369.31;;;11.77;56.77
75759;BME280;64371;47.566;19.086;2023-04-29T06:40:14;100378.13;;;11.67;58.26
75759;BME280;64371;47.566;19.086;2023-04-29T06:43:35;100373.31;;;11.74;58.07
75759;BME280;64371;47.566;19.086;2023-04-29T06:46:53;100377.78;;;11.74;55.86
75759;BME280;64371;47.566;19.086;2023-04-29T06:50:18;100367.97;;;11.56;57.25
75759;BME280;64371;47.566;19.086;2023-04-29T06:53:21;100369.06;;;11.73;56.31
75759;BME280;64371;47.566;19.086;2023-04-29T06:56:24;100367.72;;;11.76;55.46
75759;BME280;64371;47.566;19.086;2023-04-29T06:59:26;100381.34;;;11.83;55.91
75759;BME280;64371;47.566;19.086;2023-04-29T07:02:29;100378.59;;;11.74;56.08
75759;BME280;64371;47.566;19.086;2023-04-29T07:05:32;100376.31;;;11.86;55.15
75759;BME280;64371;47.566;19.086;2023-04-29T07:08:34;100374.72;;;11.85;55.33
75759;BME280;64371;47.566;19.086;2023-04-29T07:11:36;100369.00;;;11.97;54.38
75759;BME280;64371;47.566;19.086;2023-04-29T07:14:39;100367.03;;;11.89;55.46
75759;BME280;64371;47.566;19.086;2023-04-29T07:17:42;100375.28;;;12.01;55.33
75759;BME280;64371;47.566;19.086;2023-04-29T07:20:45;100381.94;;;11.98;55.26
75759;BME280;64371;47.566;19.086;2023-04-29T07:23:50;100383.78;;;11.98;54.57
75759;BME280;64371;47.566;19.086;2023-04-29T07:26:53;100384.69;;;12.07;55.80
75759;BME280;64371;47.566;19.086;2023-04-29T07:29:55;100379.69;;;12.24;54.41
75759;BME280;64371;47.566;19.086;2023-04-29T07:32:58;100365.19;;;12.22;55.65
75759;BME280;64371;47.566;19.086;2023-04-29T07:36:02;100371.81;;;12.19;55.40
75759;BME280;64371;47.566;19.086;2023-04-29T07:39:05;100371.50;;;12.07;54.45
75759;BME280;64371;47.566;19.086;2023-04-29T07:42:07;100374.78;;;12.18;54.12
75759;BME280;64371;47.566;19.086;2023-04-29T07:45:10;100378.41;;;12.22;54.34
75759;BME280;64371;47.566;19.086;2023-04-29T07:48:14;100374.06;;;12.12;53.59
75759;BME280;64371;47.566;19.086;2023-04-29T07:51:20;100378.31;;;12.27;54.04
75759;BME280;64371;47.566;19.086;2023-04-29T07:54:22;100383.72;;;12.35;53.33
75759;BME280;64371;47.566;19.086;2023-04-29T07:57:25;100386.53;;;12.57;53.38
75759;BME280;64371;47.566;19.086;2023-04-29T08:00:28;100385.22;;;12.87;53.86
75759;BME280;64371;47.566;19.086;2023-04-29T08:03:30;100379.63;;;12.89;52.41
75759;BME280;64371;47.566;19.086;2023-04-29T08:06:34;100381.03;;;13.13;51.69
75759;BME280;64371;47.566;19.086;2023-04-29T08:09:37;100381.63;;;13.24;50.58
75759;BME280;64371;47.566;19.086;2023-04-29T08:12:40;100390.16;;;13.21;50.16
75759;BME280;64371;47.566;19.086;2023-04-29T08:15:42;100384.34;;;13.32;50.26
75759;BME280;64371;47.566;19.086;2023-04-29T08:18:46;100388.06;;;13.59;49.95
75759;BME280;64371;47.566;19.086;2023-04-29T08:21:48;100385.34;;;13.86;49.11
75759;BME280;64371;47.566;19.086;2023-04-29T08:24:53;100382.81;;;14.03;48.69
75759;BME280;64371;47.566;19.086;2023-04-29T08:27:55;100394.53;;;14.24;48.65
75759;BME280;64371;47.566;19.086;2023-04-29T08:30:57;100388.94;;;14.48;48.09
75759;BME280;64371;47.566;19.086;2023-04-29T08:34:00;100403.34;;;14.86;47.78
75759;BME280;64371;47.566;19.086;2023-04-29T08:37:03;100384.16;;;14.58;46.84
75759;BME280;64371;47.566;19.086;2023-04-29T08:40:07;100392.66;;;14.25;48.72
75759;BME280;64371;47.566;19.086;2023-04-29T08:43:10;100394.06;;;14.44;48.26
75759;BME280;64371;47.566;19.086;2023-04-29T08:46:13;100396.22;;;14.65;48.32
75759;BME280;64371;47.566;19.086;2023-04-29T08:49:16;100395.19;;;15.13;47.43
75759;BME280;64371;47.566;19.086;2023-04-29T08:52:18;100398.97;;;15.21;46.37
75759;BME280;64371;47.566;19.086;2023-04-29T08:55:21;100403.50;;;15.29;46.22
75759;BME280;64371;47.566;19.086;2023-04-29T08:58:27;100396.38;;;14.37;48.01
75759;BME280;64371;47.566;19.086;2023-04-29T09:01:31;100399.47;;;14.92;47.81
75759;BME280;64371;47.566;19.086;2023-04-29T09:04:46;100400.75;;;15.43;46.92
75759;BME280;64371;47.566;19.086;2023-04-29T09:07:50;100408.28;;;15.49;45.07
75759;BME280;64371;47.566;19.086;2023-04-29T09:10:53;100407.34;;;15.54;44.63
75759;BME280;64371;47.566;19.086;2023-04-29T09:14:00;100417.75;;;15.33;45.12
75759;BME280;64371;47.566;19.086;2023-04-29T09:17:04;100414.91;;;15.21;45.17
75759;BME280;64371;47.566;19.086;2023-04-29T09:23:35;100409.13;;;15.27;44.98
75759;BME280;64371;47.566;19.086;2023-04-29T09:26:41;100406.25;;;15.46;44.95
75759;BME280;64371;47.566;19.086;2023-04-29T09:29:59;100410.19;;;15.66;42.83
75759;BME280;64371;47.566;19.086;2023-04-29T09:33:07;100404.78;;;15.32;42.52
75759;BME280;64371;47.566;19.086;2023-04-29T09:36:11;100404.97;;;15.04;42.57
75759;BME280;64371;47.566;19.086;2023-04-29T09:39:18;100400.63;;;15.48;42.11
75759;BME280;64371;47.566;19.086;2023-04-29T09:42:23;100399.88;;;15.64;41.44
75759;BME280;64371;47.566;19.086;2023-04-29T09:45:32;100395.44;;;15.43;41.18
75759;BME280;64371;47.566;19.086;2023-04-29T09:48:39;100397.56;;;15.23;42.85
75759;BME280;64371;47.566;19.086;2023-04-29T09:51:51;100396.66;;;15.37;41.49
75759;BME280;64371;47.566;19.086;2023-04-29T09:55:04;100401.72;;;15.55;42.22
75759;BME280;64371;47.566;19.086;2023-04-29T10:01:33;100400.22;;;15.97;39.83
75759;BME280;64371;47.566;19.086;2023-04-29T10:04:38;100401.28;;;16.39;39.92
75759;BME280;64371;47.566;19.086;2023-04-29T10:07:41;100392.22;;;16.31;38.79
75759;BME280;64371;47.566;19.086;2023-04-29T10:10:45;100387.94;;;16.47;38.25
75759;BME280;64371;47.566;19.086;2023-04-29T10:13:50;100395.97;;;16.22;37.44
75759;BME280;64371;47.566;19.086;2023-04-29T10:20:04;100394.72;;;16.53;37.28
75759;BME280;64371;47.566;19.086;2023-04-29T10:23:07;100387.75;;;16.78;36.70
75759;BME280;64371;47.566;19.086;2023-04-29T10:26:15;100382.78;;;16.51;37.85
75759;BME280;64371;47.566;19.086;2023-04-29T10:29:18;100386.56;;;16.58;37.96
75759;BME280;64371;47.566;19.086;2023-04-29T10:32:25;100384.81;;;16.71;38.17
75759;BME280;64371;47.566;19.086;2023-04-29T10:35:38;100375.19;;;16.79;36.46
75759;BME280;64371;47.566;19.086;2023-04-29T10:38:48;100375.56;;;16.69;38.54
75759;BME280;64371;47.566;19.086;2023-04-29T10:41:55;100362.78;;;16.53;36.78
75759;BME280;64371;47.566;19.086;2023-04-29T10:45:21;100357.06;;;16.72;37.08
75759;BME280;64371;47.566;19.086;2023-04-29T10:48:24;100354.28;;;16.69;37.59
75759;BME280;64371;47.566;19.086;2023-04-29T10:51:43;100348.28;;;17.39;36.67
75759;BME280;64371;47.566;19.086;2023-04-29T10:55:01;100347.31;;;17.43;36.52
75759;BME280;64371;47.566;19.086;2023-04-29T10:58:04;100332.41;;;17.21;37.08
75759;BME280;64371;47.566;19.086;2023-04-29T11:01:09;100329.06;;;17.24;36.76
75759;BME280;64371;47.566;19.086;2023-04-29T11:04:13;100328.59;;;17.02;37.23
75759;BME280;64371;47.566;19.086;2023-04-29T11:07:28;100328.13;;;16.62;37.33
75759;BME280;64371;47.566;19.086;2023-04-29T11:10:40;100322.56;;;16.84;37.63
75759;BME280;64371;47.566;19.086;2023-04-29T11:13:45;100325.16;;;17.01;37.47
75759;BME280;64371;47.566;19.086;2023-04-29T11:16:50;100309.06;;;16.89;37.97
75759;BME280;64371;47.566;19.086;2023-04-29T11:19:53;100303.91;;;16.93;37.63
75759;BME280;64371;47.566;19.086;2023-04-29T11:22:57;100312.25;;;17.12;37.58
75759;BME280;64371;47.566;19.086;2023-04-29T11:26:00;100312.03;;;17.46;36.87
75759;BME280;64371;47.566;19.086;2023-04-29T11:29:07;100309.22;;;17.84;37.35
75759;BME280;64371;47.566;19.086;2023-04-29T11:32:12;100309.22;;;18.29;36.00
75759;BME280;64371;47.566;19.086;2023-04-29T11:35:16;100300.75;;;18.15;36.13
75759;BME280;64371;47.566;19.086;2023-04-29T11:38:26;100309.94;;;18.38;37.31
75759;BME280;64371;47.566;19.086;2023-04-29T11:41:29;100303.66;;;18.22;36.63
75759;BME280;64371;47.566;19.086;2023-04-29T11:44:33;100299.00;;;18.19;37.41
75759;BME280;64371;47.566;19.086;2023-04-29T11:47:37;100315.03;;;17.98;37.45
75759;BME280;64371;47.566;19.086;2023-04-29T11:50:45;100299.88;;;18.11;38.19
75759;BME280;64371;47.566;19.086;2023-04-29T11:53:48;100297.69;;;18.37;37.73
75759;BME280;64371;47.566;19.086;2023-04-29T11:56:55;100298.81;;;18.36;37.39
75759;BME280;64371;47.566;19.086;2023-04-29T11:59:58;100296.34;;;18.31;37.25
75759;BME280;64371;47.566;19.086;2023-04-29T12:03:00;100306.16;;;17.94;38.16
75759;BME280;64371;47.566;19.086;2023-04-29T12:06:03;100295.16;;;18.40;37.36
75759;BME280;64371;47.566;19.086;2023-04-29T12:09:08;100290.50;;;18.49;38.43
75759;BME280;64371;47.566;19.086;2023-04-29T12:12:11;100282.06;;;18.72;36.97
75759;BME280;64371;47.566;19.086;2023-04-29T12:15:13;100289.00;;;18.28;37.81
75759;BME280;64371;47.566;19.086;2023-04-29T12:18:17;100293.19;;;18.62;37.40
75759;BME280;64371;47.566;19.086;2023-04-29T12:21:22;100292.91;;;18.30;37.61
75759;BME280;64371;47.566;19.086;2023-04-29T12:24:25;100293.00;;;18.34;37.91
75759;BME280;64371;47.566;19.086;2023-04-29T12:27:27;100290.75;;;18.81;36.89
75759;BME280;64371;47.566;19.086;2023-04-29T12:30:29;100283.50;;;19.05;36.32
75759;BME280;64371;47.566;19.086;2023-04-29T12:33:35;100289.97;;;19.56;35.51
75759;BME280;64371;47.566;19.086;2023-04-29T12:36:41;100286.69;;;19.63;34.81
75759;BME280;64371;47.566;19.086;2023-04-29T12:39:43;100280.13;;;19.20;35.97
75759;BME280;64371;47.566;19.086;2023-04-29T12:42:45;100277.13;;;19.90;35.22
75759;BME280;64371;47.566;19.086;2023-04-29T12:45:48;100273.28;;;19.75;35.10
75759;BME280;64371;47.566;19.086;2023-04-29T12:48:52;100268.78;;;20.07;35.00
75759;BME280;64371;47.566;19.086;2023-04-29T12:51:54;100270.06;;;19.97;35.69
75759;BME280;64371;47.566;19.086;2023-04-29T12:54:57;100257.69;;;18.73;37.86
75759;BME280;64371;47.566;19.086;2023-04-29T12:58:00;100256.09;;;18.24;38.69
75759;BME280;64371;47.566;19.086;2023-04-29T13:01:02;100242.75;;;18.36;37.85
75759;BME280;64371;47.566;19.086;2023-04-29T13:04:05;100241.44;;;18.54;38.00
75759;BME280;64371;47.566;19.086;2023-04-29T13:07:10;100237.59;;;19.15;36.78
75759;BME280;64371;47.566;19.086;2023-04-29T13:10:13;100225.56;;;19.09;37.84
75759;BME280;64371;47.566;19.086;2023-04-29T13:13:16;100225.84;;;18.92;37.30
75759;BME280;64371;47.566;19.086;2023-04-29T13:16:18;100226.41;;;18.37;38.31
75759;BME280;64371;47.566;19.086;2023-04-29T13:19:21;100220.25;;;18.01;39.02
75759;BME280;64371;47.566;19.086;2023-04-29T13:22:26;100230.59;;;18.14;39.42
75759;BME280;64371;47.566;19.086;2023-04-29T13:25:29;100227.53;;;18.61;37.94
75759;BME280;64371;47.566;19.086;2023-04-29T13:28:31;100225.75;;;18.89;36.91
75759;BME280;64371;47.566;19.086;2023-04-29T13:31:34;100226.19;;;18.79;37.80
75759;BME280;64371;47.566;19.086;2023-04-29T13:34:36;100225.56;;;18.58;39.36
75759;BME280;64371;47.566;19.086;2023-04-29T13:37:38;100218.00;;;18.47;38.64
75759;BME280;64371;47.566;19.086;2023-04-29T13:40:42;100203.41;;;18.69;38.01
75759;BME280;64371;47.566;19.086;2023-04-29T13:43:48;100199.38;;;18.75;38.13
75759;BME280;64371;47.566;19.086;2023-04-29T13:46:52;100199.41;;;18.51;38.90
75759;BME280;64371;47.566;19.086;2023-04-29T13:49:54;100187.38;;;18.69;38.35
75759;BME280;64371;47.566;19.086;2023-04-29T13:52:59;100188.16;;;18.45;38.73
75759;BME280;64371;47.566;19.086;2023-04-29T13:56:23;100197.94;;;18.41;39.16
75759;BME280;64371;47.566;19.086;2023-04-29T13:59:33;100198.28;;;18.64;39.09
75759;BME280;64371;47.566;19.086;2023-04-29T14:02:51;100200.53;;;18.50;38.99
75759;BME280;64371;47.566;19.086;2023-04-29T14:05:56;100199.63;;;18.58;38.56
75759;BME280;64371;47.566;19.086;2023-04-29T14:08:59;100214.09;;;18.69;38.93
75759;BME280;64371;47.566;19.086;2023-04-29T14:12:05;100193.59;;;18.73;39.25
75759;BME280;64371;47.566;19.086;2023-04-29T14:15:08;100198.69;;;18.90;39.27
75759;BME280;64371;47.566;19.086;2023-04-29T14:18:10;100192.78;;;18.85;39.42
75759;BME280;64371;47.566;19.086;2023-04-29T14:21:13;100193.47;;;19.21;38.87
75759;BME280;64371;47.566;19.086;2023-04-29T14:24:15;100194.59;;;19.20;38.87
75759;BME280;64371;47.566;19.086;2023-04-29T14:27:17;100200.47;;;19.26;38.64
75759;BME280;64371;47.566;19.086;2023-04-29T14:30:20;100182.44;;;18.83;39.80
75759;BME280;64371;47.566;19.086;2023-04-29T14:33:22;100189.06;;;18.62;40.41
75759;BME280;64371;47.566;19.086;2023-04-29T14:36:25;100173.50;;;18.51;40.02
75759;BME280;64371;47.566;19.086;2023-04-29T14:39:28;100174.47;;;18.35;40.38
75759;BME280;64371;47.566;19.086;2023-04-29T14:42:30;100168.47;;;18.26;40.92
75759;BME280;64371;47.566;19.086;2023-04-29T14:45:32;100175.56;;;18.34;40.74
75759;BME280;64371;47.566;19.086;2023-04-29T14:48:35;100177.59;;;18.49;40.55
75759;BME280;64371;47.566;19.086;2023-04-29T14:51:37;100165.25;;;18.32;41.74
75759;BME280;64371;47.566;19.086;2023-04-29T14:54:39;100179.69;;;18.55;41.16
75759;BME280;64371;47.566;19.086;2023-04-29T14:57:42;100184.47;;;18.74;40.51
75759;BME280;64371;47.566;19.086;2023-04-29T15:00:44;100183.13;;;18.80;40.31
75759;BME280;64371;47.566;19.086;2023-04-29T15:03:47;100191.16;;;18.56;41.19
75759;BME280;64371;47.566;19.086;2023-04-29T15:06:50;100189.50;;;18.51;41.28
75759;BME280;64371;47.566;19.086;2023-04-29T15:09:52;100194.06;;;18.51;41.60
75759;BME280;64371;47.566;19.086;2023-04-29T15:12:55;100189.59;;;18.43;41.01
75759;BME280;64371;47.566;19.086;2023-04-29T15:15:57;100188.72;;;18.51;41.61
75759;BME280;64371;47.566;19.086;2023-04-29T15:19:00;100180.59;;;18.60;41.06
75759;BME280;64371;47.566;19.086;2023-04-29T15:22:02;100187.41;;;18.57;41.03
75759;BME280;64371;47.566;19.086;2023-04-29T15:25:06;100182.06;;;18.57;41.62
75759;BME280;64371;47.566;19.086;2023-04-29T15:28:11;100177.47;;;18.45;41.92
75759;BME280;64371;47.566;19.086;2023-04-29T15:31:13;100186.25;;;18.58;41.80
75759;BME280;64371;47.566;19.086;2023-04-29T15:34:15;100189.16;;;18.53;41.65
75759;BME280;64371;47.566;19.086;2023-04-29T15:37:18;100176.25;;;18.67;42.09
75759;BME280;64371;47.566;19.086;2023-04-29T15:40:20;100171.38;;;18.33;43.46
75759;BME280;64371;47.566;19.086;2023-04-29T15:43:23;100170.59;;;18.32;43.00
75759;BME280;64371;47.566;19.086;2023-04-29T15:46:25;100165.81;;;18.26;43.26
75759;BME280;64371;47.566;19.086;2023-04-29T15:49:28;100154.91;;;18.19;43.60
75759;BME280;64371;47.566;19.086;2023-04-29T15:52:32;100163.56;;;18.16;44.02
75759;BME280;64371;47.566;19.086;2023-04-29T15:55:34;100165.47;;;18.27;43.74
75759;BME280;64371;47.566;19.086;2023-04-29T15:58:36;100159.34;;;18.15;44.21
75759;BME280;64371;47.566;19.086;2023-04-29T16:01:39;100160.13;;;18.27;43.84
75759;BME280;64371;47.566;19.086;2023-04-29T16:04:41;100166.47;;;18.35;44.00
75759;BME280;64371;47.566;19.086;2023-04-29T16:07:44;100167.56;;;18.22;44.35
75759;BME280;64371;47.566;19.086;2023-04-29T16:10:47;100159.91;;;17.96;45.00
75759;BME280;64371;47.566;19.086;2023-04-29T16:13:50;100169.34;;;17.94;45.17